Dobrodošli na spletni strani vremenske postaje Senovo. Vse informacije so informativnega značaja, saj vremenska postaja ni del državne mreže meteoroloških postaj. AKTUALNIH OBVESTIL NI.


Sneg/Led Od: 23-02-2018 00:00 Do: 23:59 Opozorilo za: Sneg/Led Stopnja: Rumena info button

Pogled proti Armezu več informacij Pogled proti Armezu


Lisca več informacij Lisca


Radar strel več informacij blitzortung!


opozorilo za sneg/led več informacij rain snow radar


Obiščite še:

Template documentation
and downloads

And another site



Weather Underground, zgodovina - Tekstovno

Dnevni povzetek za Januar 21, 2018 Enote:  Metrično    Angleško   Obe
« Predhodni Dan
Naslednji Dan »
Dnevni Tedenski Mesečni Letni Po meri
  Višja: Nižja: Povprečje:
Temperatura: -17.8 °C -18.2 °C -16.5 °C
Točka rosišča: -17.8 °C -20 °C -17.7 °C
Vlažnost: Humidity % 57 % 87 %
Hitrost vetra: 0 km/h 0 km/h 3.5 km/h
Sunki vetra: 0 km/h - -
Veter:- - South
Zračni tlak: 0 hPa 33788.9 hPa -
Padavine: 0 mm    
Historical Graphs
 
 
Tabelarni podarki za Januar 21, 2018
Čas Temperatura Točka rosišča Zračni tlak Veter Hitrost vetra Sunki vetra Vlažnost Intenziteta padavin (urna)
-17.8 °C -17.8 °C 0 hPa Calm     Humidity % 0 mm
00:01 -17.3 °C -17.7 °C 33958.2 hPa SW 1.3 km/h 6.9 km/h 96 % 0 mm
00:06 -17.3 °C -17.7 °C 33958.2 hPa SSW 3.1 km/h 8 km/h 96 % 0 mm
00:11 -17.3 °C -17.7 °C 33958.2 hPa South 2.6 km/h 8 km/h 96 % 0 mm
00:16 -17.3 °C -17.7 °C 33958.2 hPa South 0.8 km/h 5.1 km/h 96 % 0 mm
00:21 -17.3 °C -17.7 °C 33958.2 hPa Calm     96 % 0 mm
00:26 -17.3 °C -17.7 °C 33958.2 hPa SW 1.6 km/h 7.6 km/h 96 % 0 mm
00:31 -17.3 °C -17.7 °C 33958.2 hPa SSW 4.7 km/h 11.1 km/h 96 % 0 mm
00:36 -17.4 °C -17.7 °C 33958.2 hPa South 6.9 km/h 14 km/h 96 % 0 mm
00:41 -17.4 °C -17.7 °C 33924.3 hPa South 8.5 km/h 14 km/h 96 % 0 mm
00:46 -17.4 °C -17.7 °C 33924.3 hPa SSE 7.6 km/h 12.2 km/h 96 % 0 mm
00:51 -17.4 °C -17.7 °C 33924.3 hPa SE 4.2 km/h 9.3 km/h 96 % 0 mm
00:56 -17.4 °C -17.7 °C 33890.5 hPa South 1 km/h 6.9 km/h 96 % 0 mm
01:01 -17.4 °C -17.7 °C 33890.5 hPa ESE 0.3 km/h 5.6 km/h 96 % 0 mm
01:06 -17.4 °C -17.7 °C 33890.5 hPa SE 2.1 km/h 6.4 km/h 96 % 0 mm
01:11 -17.4 °C -17.7 °C 33890.5 hPa SE 2.9 km/h 9.8 km/h 96 % 0 mm
01:16 -17.4 °C -17.7 °C 33890.5 hPa ESE 2.6 km/h 9.8 km/h 96 % 0 mm
01:21 -17.4 °C -17.7 °C 33890.5 hPa ESE 1.8 km/h 8 km/h 96 % 0 mm
01:26 -17.4 °C -17.7 °C 33856.6 hPa ESE 1 km/h 6.9 km/h 96 % 0 mm
01:31 -17.4 °C -17.7 °C 33856.6 hPa ESE 0.8 km/h 6.9 km/h 96 % 0 mm
01:36 -17.4 °C -17.7 °C 33856.6 hPa SSE 1.6 km/h 6.4 km/h 96 % 0 mm
01:41 -17.4 °C -17.7 °C 33856.6 hPa South 3.4 km/h 9.3 km/h 96 % 0 mm
01:46 -17.4 °C -17.7 °C 33856.6 hPa South 4.3 km/h 11.1 km/h 96 % 0 mm
01:51 -17.4 °C -17.7 °C 33856.6 hPa SSW 3.4 km/h 11.1 km/h 96 % 0 mm
01:56 -17.4 °C -17.7 °C 33856.6 hPa SW 4.2 km/h 9.3 km/h 96 % 0 mm
02:01 -17.4 °C -17.7 °C 33856.6 hPa SW 5 km/h 9.3 km/h 96 % 0 mm
02:06 -17.4 °C -17.7 °C 33856.6 hPa WSW 5.1 km/h 9.3 km/h 96 % 0 mm
02:11 -17.4 °C -17.7 °C 33856.6 hPa WSW 6.3 km/h 9.3 km/h 96 % 0 mm
02:16 -17.4 °C -17.7 °C 33856.6 hPa West 3.9 km/h 6.4 km/h 96 % 0 mm
02:21 -17.4 °C -17.7 °C 33856.6 hPa NNW 1.6 km/h 5.6 km/h 96 % 0 mm
02:26 -17.4 °C -17.7 °C 33890.5 hPa SSE 2.9 km/h 9.3 km/h 96 % 0 mm
02:31 -17.4 °C -17.7 °C 33890.5 hPa SSE 2.6 km/h 9.3 km/h 96 % 0 mm
02:36 -17.4 °C -17.7 °C 33890.5 hPa North 0.3 km/h   96 % 0 mm
02:41 -17.4 °C -17.7 °C 33856.6 hPa Calm     96 % 0 mm
02:46 -17.4 °C -17.7 °C 33856.6 hPa Calm     96 % 0 mm
02:51 -17.4 °C -17.7 °C 33856.6 hPa SSE 0.3 km/h 5.6 km/h 96 % 0 mm
02:56 -17.4 °C -17.7 °C 33856.6 hPa SSE 1.3 km/h 5.6 km/h 96 % 0 mm
03:01 -17.4 °C -17.7 °C 33856.6 hPa SSE 1 km/h 5.6 km/h 96 % 0 mm
03:06 -17.4 °C -17.7 °C 33856.6 hPa Calm     96 % 0 mm
03:11 -17.4 °C -17.7 °C 33822.8 hPa Calm     96 % 0 mm
03:16 -17.4 °C -17.7 °C 33822.8 hPa Calm     96 % 0 mm
03:21 -17.4 °C -17.7 °C 33822.8 hPa Calm     96 % 0 mm
03:27 -17.4 °C -17.7 °C 33822.8 hPa Calm     96 % 0 mm
03:32 -17.4 °C -17.7 °C 33822.8 hPa Calm     96 % 0 mm
03:36 -17.4 °C -17.7 °C 33822.8 hPa Calm     96 % 0 mm
03:42 -17.4 °C -17.7 °C 33788.9 hPa Calm     96 % 0 mm
03:47 -17.4 °C -17.7 °C 33788.9 hPa Calm     96 % 0 mm
03:52 -17.4 °C -17.7 °C 33788.9 hPa SSW 0.8 km/h 6.4 km/h 96 % 0 mm
03:56 -17.3 °C -17.7 °C 33822.8 hPa South 1.8 km/h 8 km/h 96 % 0 mm
04:01 -17.4 °C -17.7 °C 33822.8 hPa SSW 1.6 km/h 8 km/h 96 % 0 mm
04:07 -17.3 °C -17.7 °C 33822.8 hPa South 0.8 km/h 5.1 km/h 96 % 0 mm
04:12 -17.3 °C -17.7 °C 33788.9 hPa SSE 1.3 km/h 8 km/h 96 % 0 mm
04:17 -17.3 °C -17.6 °C 33788.9 hPa SSE 3.9 km/h 9.3 km/h 97 % 0 mm
04:22 -17.3 °C -17.6 °C 33788.9 hPa South 5.5 km/h 9.3 km/h 97 % 0 mm
04:27 -17.4 °C -17.6 °C 33822.8 hPa South 3.1 km/h 8 km/h 97 % 0 mm
04:32 -17.4 °C -17.6 °C 33822.8 hPa SSE 0.5 km/h 5.6 km/h 97 % 0 mm
04:37 -17.4 °C -17.6 °C 33822.8 hPa South 0.8 km/h 9.3 km/h 97 % 0 mm
04:42 -17.4 °C -17.6 °C 33856.6 hPa South 3.1 km/h 9.3 km/h 97 % 0 mm
04:47 -17.4 °C -17.6 °C 33856.6 hPa South 3.7 km/h 7.6 km/h 97 % 0 mm
04:52 -17.4 °C -17.6 °C 33856.6 hPa South 3.7 km/h 8.9 km/h 97 % 0 mm
04:57 -17.4 °C -17.6 °C 33788.9 hPa South 3.1 km/h 8.9 km/h 97 % 0 mm
05:02 -17.4 °C -17.6 °C 33788.9 hPa SSE 0.8 km/h 6.4 km/h 97 % 0 mm
05:07 -17.4 °C -17.6 °C 33788.9 hPa Calm     97 % 0 mm
05:12 -17.4 °C -17.6 °C 33822.8 hPa Calm     97 % 0 mm
05:17 -17.4 °C -17.6 °C 33822.8 hPa Calm     97 % 0 mm
05:22 -17.4 °C -17.6 °C 33822.8 hPa Calm     97 % 0 mm
05:27 -17.4 °C -17.6 °C 33822.8 hPa SW 1.8 km/h 7.6 km/h 97 % 0 mm
05:32 -17.4 °C -17.6 °C 33822.8 hPa SW 3.1 km/h 7.6 km/h 97 % 0 mm
05:37 -17.4 °C -17.6 °C 33822.8 hPa SW 1.3 km/h 6.4 km/h 97 % 0 mm
05:42 -17.3 °C -17.6 °C 33788.9 hPa Calm   3.4 km/h 97 % 0 mm
05:47 -17.4 °C -17.6 °C 33788.9 hPa Calm     97 % 0 mm
05:52 -17.3 °C -17.6 °C 33788.9 hPa Calm     97 % 0 mm
05:57 -17.3 °C -17.6 °C 33788.9 hPa SSE 1 km/h 6.4 km/h 97 % 0 mm
06:02 -17.3 °C -17.6 °C 33788.9 hPa South 1.3 km/h 6.4 km/h 97 % 0 mm
06:07 -17.3 °C -17.6 °C 33788.9 hPa South 0.3 km/h 5.6 km/h 97 % 0 mm
06:12 -17.3 °C -17.6 °C 33788.9 hPa Calm     97 % 0 mm
06:17 -17.3 °C -17.6 °C 33788.9 hPa SW 0.5 km/h 4.2 km/h 97 % 0 mm
06:22 -17.4 °C -17.6 °C 33788.9 hPa SW 1.3 km/h 5.1 km/h 97 % 0 mm
06:27 -17.4 °C -17.6 °C 33822.8 hPa SW 1 km/h 5.1 km/h 97 % 0 mm
06:32 -17.4 °C -17.6 °C 33822.8 hPa North 0.3 km/h   97 % 0 mm
06:42 -17.4 °C -17.6 °C 33822.8 hPa Calm     97 % 0 mm
06:47 -17.4 °C -17.6 °C 33822.8 hPa Calm     97 % 0 mm
06:52 -17.3 °C -17.6 °C 33822.8 hPa Calm     97 % 0 mm
06:57 -17.3 °C -17.6 °C 33822.8 hPa Calm   2.3 km/h 97 % 0 mm
07:02 -17.3 °C -17.6 °C 33822.8 hPa Calm   2.3 km/h 97 % 0 mm
07:07 -17.3 °C -17.5 °C 33822.8 hPa Calm     97 % 0 mm
07:12 -17.3 °C -17.5 °C 33856.6 hPa ESE 1 km/h 6.9 km/h 97 % 0 mm
07:17 -17.3 °C -17.5 °C 33856.6 hPa ESE 1.3 km/h 6.9 km/h 97 % 0 mm
07:22 -17.3 °C -17.5 °C 33856.6 hPa ESE 0.3 km/h 2.3 km/h 97 % 0 mm
07:23 -17.3 °C -17.5 °C 33856.6 hPa ESE 0.3 km/h 2.3 km/h 97 % 0 mm
07:28 -17.3 °C -17.5 °C 33856.6 hPa Calm     97 % 0 mm
07:33 -17.3 °C -17.5 °C 33856.6 hPa Calm     97 % 0 mm
07:43 -17.3 °C -17.5 °C 33856.6 hPa NE 1.3 km/h 8 km/h 97 % 0 mm
07:48 -17.3 °C -17.5 °C 33856.6 hPa NE 1.6 km/h 8 km/h 97 % 0 mm
07:58 -17.3 °C -17.5 °C 33856.6 hPa Calm   2.9 km/h 97 % 0 mm
08:03 -17.3 °C -17.6 °C 33856.6 hPa North 0.5 km/h 6.9 km/h 97 % 0 mm
08:13 -17.4 °C -17.6 °C 33890.5 hPa NNE 3.1 km/h 8.9 km/h 97 % 0 mm
08:18 -17.4 °C -17.6 °C 33890.5 hPa NE 2.6 km/h 8.9 km/h 97 % 0 mm
08:28 -17.4 °C -17.6 °C 33890.5 hPa NE 1.6 km/h 6.9 km/h 97 % 0 mm
08:33 -17.4 °C -17.6 °C 33890.5 hPa NE 1.6 km/h 5.1 km/h 97 % 0 mm
08:38 -17.4 °C -17.6 °C 33890.5 hPa ENE 1.8 km/h 6.4 km/h 97 % 0 mm
08:43 -17.4 °C -17.6 °C 33856.6 hPa ENE 1.8 km/h 6.4 km/h 97 % 0 mm
08:48 -17.4 °C -17.6 °C 33856.6 hPa North 0.3 km/h 3.4 km/h 97 % 0 mm
08:53 -17.3 °C -17.6 °C 33856.6 hPa Calm   2.9 km/h 97 % 0 mm
08:58 -17.3 °C -17.6 °C 33856.6 hPa Calm   2.9 km/h 97 % 0 mm
09:03 -17.3 °C -17.6 °C 33856.6 hPa Calm     97 % 0 mm
09:08 -17.3 °C -17.5 °C 33856.6 hPa South 1 km/h 6.4 km/h 97 % 0 mm
09:13 -17.3 °C -17.5 °C 33890.5 hPa South 0.8 km/h 6.4 km/h 97 % 0 mm
09:18 -17.2 °C -17.4 °C 33890.5 hPa Calm     97 % 0 mm
09:23 -17.2 °C -17.4 °C 33890.5 hPa Calm     97 % 0 mm
09:28 -17.1 °C -17.3 °C 33890.5 hPa Calm   3.4 km/h 97 % 0 mm
09:33 -17.1 °C -17.3 °C 33890.5 hPa SSW 2.1 km/h 9.3 km/h 97 % 0 mm
09:38 -17 °C -17.2 °C 33890.5 hPa SSW 5.1 km/h 9.3 km/h 97 % 0 mm
09:43 -16.9 °C -17.2 °C 33890.5 hPa SSW 5.1 km/h 9.3 km/h 97 % 0 mm
09:48 -16.9 °C -17.2 °C 33890.5 hPa South 2.1 km/h 8 km/h 97 % 0 mm
09:53 -16.9 °C -17.1 °C 33890.5 hPa SE 1.3 km/h 7.6 km/h 97 % 0 mm
09:58 -16.9 °C -17.1 °C 33890.5 hPa SSW 2.1 km/h 7.6 km/h 97 % 0 mm
10:03 -16.9 °C -17.1 °C 33890.5 hPa WSW 4.3 km/h 10.3 km/h 97 % 0 mm
10:08 -16.9 °C -17.1 °C 33890.5 hPa WSW 6.4 km/h 10.3 km/h 97 % 0 mm
10:13 -16.8 °C -17 °C 33958.2 hPa SW 5.1 km/h 10.3 km/h 97 % 0 mm
10:18 -16.7 °C -16.9 °C 33958.2 hPa SSW 5.1 km/h 9.3 km/h 97 % 7.62 mm
10:23 -16.7 °C -16.9 °C 33958.2 hPa SSW 5.5 km/h 8 km/h 97 % 7.62 mm
10:28 -16.6 °C -16.8 °C 33958.2 hPa SSW 4.3 km/h 7.6 km/h 97 % 7.62 mm
10:33 -16.6 °C -16.8 °C 33958.2 hPa SSW 3.9 km/h 8.9 km/h 97 % 7.62 mm
10:38 -16.5 °C -16.7 °C 33958.2 hPa SSW 5.1 km/h 10.3 km/h 97 % 7.62 mm
10:43 -16.4 °C -16.7 °C 33958.2 hPa SSW 5.6 km/h 10.3 km/h 97 % 7.62 mm
10:48 -16.4 °C -16.6 °C 33958.2 hPa SSW 5 km/h 9.3 km/h 97 % 7.62 mm
10:53 -16.3 °C -16.5 °C 33958.2 hPa SW 3.1 km/h 8 km/h 97 % 7.62 mm
10:58 -16.3 °C -16.5 °C 33924.3 hPa SSW 1 km/h 6.4 km/h 97 % 7.62 mm
11:03 -16.2 °C -16.4 °C 33924.3 hPa SSE 0.3 km/h 5.1 km/h 98 % 7.62 mm
11:08 -16.1 °C -16.3 °C 33924.3 hPa SSE 1.6 km/h 9.3 km/h 97 % 7.62 mm
11:13 -16 °C -16.2 °C 33924.3 hPa SSE 3.4 km/h 9.3 km/h 97 % 7.62 mm
11:18 -15.9 °C -16.2 °C 33924.3 hPa SE 3.9 km/h 8.9 km/h 97 % 0 mm
11:23 -15.9 °C -16.2 °C 33924.3 hPa SE 4.7 km/h 8.9 km/h 97 % 0 mm
11:28 -15.8 °C -16 °C 33958.2 hPa SE 4.7 km/h 9.8 km/h 97 % 0 mm
11:33 -15.8 °C -16 °C 33958.2 hPa ESE 6.4 km/h 10.3 km/h 97 % 0 mm
11:38 -15.8 °C -16 °C 33958.2 hPa ESE 6.9 km/h 10.3 km/h 97 % 0 mm
11:43 -15.7 °C -15.9 °C 33958.2 hPa ESE 6.3 km/h 9.8 km/h 97 % 0 mm
11:48 -15.6 °C -15.9 °C 33958.2 hPa ESE 5.1 km/h 9.8 km/h 97 % 0 mm
11:53 -15.4 °C -15.7 °C 33958.2 hPa ESE 5 km/h 8 km/h 97 % 0 mm
11:58 -15.3 °C -15.5 °C 33958.2 hPa ESE 5.6 km/h 9.8 km/h 97 % 0 mm
12:03 -15.1 °C -15.3 °C 33958.2 hPa SE 7.6 km/h 11.1 km/h 97 % 0 mm
12:08 -14.9 °C -15.2 °C 33958.2 hPa SE 7.6 km/h 11.1 km/h 97 % 0 mm
12:13 -14.8 °C -15.1 °C 33958.2 hPa SE 5.1 km/h 11.1 km/h 97 % 0 mm
12:18 -14.6 °C -14.8 °C 33958.2 hPa SSE 3.9 km/h 9.8 km/h 97 % 0 mm
12:23 -14.4 °C -14.7 °C 33958.2 hPa South 2.1 km/h 7.6 km/h 97 % 0 mm
12:28 -14.3 °C -14.6 °C 33924.3 hPa North 0.3 km/h   97 % 0 mm
12:33 -14.1 °C -14.3 °C 33924.3 hPa SSW 0.5 km/h 6.4 km/h 97 % 0 mm
12:38 -13.9 °C -14.2 °C 33924.3 hPa South 0.5 km/h 6.4 km/h 97 % 0 mm
12:43 -13.9 °C -14.1 °C 33958.2 hPa ESE 1.6 km/h 7.6 km/h 97 % 0 mm
12:48 -13.7 °C -14 °C 33958.2 hPa SE 1.6 km/h 7.6 km/h 97 % 0 mm
12:53 -13.6 °C -13.8 °C 33958.2 hPa South 1.6 km/h 6.9 km/h 97 % 0 mm
12:58 -13.4 °C -13.7 °C 33958.2 hPa SSE 5.5 km/h 18.7 km/h 97 % 0 mm
13:03 -13.2 °C -13.6 °C 33958.2 hPa SSE 8.9 km/h 18.7 km/h 96 % 0 mm
13:08 -13.1 °C -13.4 °C 33958.2 hPa SSE 10.3 km/h 16.3 km/h 96 % 0 mm
13:13 -13.1 °C -13.4 °C 33958.2 hPa ESE 11.1 km/h 16.9 km/h 96 % 0 mm
13:18 -13.1 °C -13.4 °C 33958.2 hPa ESE 11.4 km/h 19.6 km/h 96 % 0 mm
13:23 -13.2 °C -13.6 °C 33958.2 hPa ESE 13.7 km/h 26.2 km/h 95 % 0 mm
13:28 -13.2 °C -13.6 °C 33958.2 hPa ESE 16.1 km/h 28.5 km/h 95 % 0 mm
13:33 -13.2 °C -13.7 °C 33958.2 hPa ESE 15.6 km/h 28.5 km/h 94 % 0 mm
13:38 -13.2 °C -13.8 °C 33958.2 hPa East 14.5 km/h 25.4 km/h 93 % 0 mm
13:43 -13.2 °C -13.9 °C 33992.1 hPa ENE 15 km/h 22.5 km/h 91 % 0 mm
13:48 -13.1 °C -14.1 °C 33992.1 hPa ENE 16.6 km/h 22.5 km/h 89 % 0 mm
13:53 -13.1 °C -14.3 °C 33992.1 hPa ENE 15.3 km/h 23 km/h 87 % 0 mm
13:58 -13.1 °C -14.3 °C 33992.1 hPa East 14.2 km/h 23 km/h 86 % 0 mm
14:03 -13 °C -14.3 °C 33992.1 hPa East 13.5 km/h 22 km/h 85 % 0 mm
14:08 -13.1 °C -14.7 °C 33992.1 hPa East 14.5 km/h 22.5 km/h 82 % 0 mm
14:14 -13.1 °C -14.9 °C 33992.1 hPa East 16.6 km/h 32.3 km/h 80 % 0 mm
14:19 -13.2 °C -15.2 °C 33992.1 hPa East 14.2 km/h 32.3 km/h 78 % 0 mm
14:24 -13.2 °C -15.4 °C 33992.1 hPa East 11.1 km/h 19.2 km/h 76 % 0 mm
14:29 -13.3 °C -15.6 °C 33992.1 hPa NE 10.6 km/h 19.2 km/h 75 % 0 mm
14:34 -13.3 °C -15.9 °C 33992.1 hPa ENE 9.7 km/h 14 km/h 73 % 0 mm
14:39 -13.4 °C -15.9 °C 33992.1 hPa East 8.2 km/h 12.7 km/h 73 % 0 mm
14:44 -13.4 °C -16 °C 34029.3 hPa East 7.7 km/h 16.3 km/h 72 % 0 mm
14:49 -13.4 °C -16.2 °C 34029.3 hPa ENE 8.9 km/h 16.9 km/h 71 % 0 mm
14:54 -13.4 °C -16.3 °C 34029.3 hPa ENE 8.9 km/h 16.9 km/h 70 % 0 mm
14:59 -13.4 °C -16.4 °C 34029.3 hPa ENE 8.2 km/h 12.7 km/h 69 % 0 mm
15:04 -13.6 °C -16.6 °C 34029.3 hPa ENE 7.7 km/h 12.7 km/h 68 % 0 mm
15:09 -13.6 °C -16.8 °C 34029.3 hPa ENE 7.6 km/h 15 km/h 67 % 0 mm
15:14 -13.7 °C -16.8 °C 34029.3 hPa ENE 7.7 km/h 15.6 km/h 67 % 0 mm
15:19 -13.7 °C -17 °C 34029.3 hPa ENE 10.1 km/h 22.5 km/h 66 % 0 mm
15:24 -13.7 °C -17.2 °C 34029.3 hPa ENE 14.8 km/h 35.2 km/h 64 % 0 mm
15:29 -13.7 °C -17.3 °C 34063.2 hPa ENE 15.3 km/h 35.2 km/h 63 % 0 mm
15:34 -13.7 °C -17.6 °C 34063.2 hPa East 13.7 km/h 22 km/h 61 % 0 mm
15:39 -13.8 °C -17.8 °C 34063.2 hPa ENE 14 km/h 23 km/h 60 % 0 mm
15:44 -13.8 °C -17.9 °C 34097 hPa ENE 14.8 km/h 23 km/h 59 % 0 mm
15:49 -13.8 °C -18.1 °C 34097 hPa East 12.7 km/h 20.9 km/h 58 % 0 mm
15:54 -13.9 °C -18.2 °C 34097 hPa East 10.6 km/h 20.9 km/h 58 % 0 mm
15:59 -14 °C -18.3 °C 34063.2 hPa ENE 8.2 km/h 14 km/h 58 % 0 mm
16:04 -14.1 °C -18.5 °C 34063.2 hPa ENE 7.2 km/h 16.9 km/h 57 % 0 mm
16:09 -14.2 °C -18.6 °C 34063.2 hPa ENE 6.4 km/h 16.9 km/h 57 % 0 mm
16:14 -14.3 °C -18.7 °C 34097 hPa NE 6.4 km/h 14.5 km/h 57 % 0 mm
16:19 -14.4 °C -18.8 °C 34097 hPa NE 8.5 km/h 14.5 km/h 57 % 0 mm
16:24 -14.5 °C -18.7 °C 34097 hPa ENE 8 km/h 14 km/h 58 % 0 mm
16:29 -14.6 °C -18.8 °C 34130.9 hPa ENE 6.9 km/h 9.3 km/h 58 % 0 mm
16:34 -14.6 °C -18.8 °C 34130.9 hPa ENE 7.6 km/h 11.1 km/h 58 % 0 mm
16:39 -14.6 °C -18.7 °C 34130.9 hPa ENE 5.5 km/h 11.1 km/h 59 % 0 mm
16:44 -14.8 °C -18.9 °C 34130.9 hPa ENE 3.4 km/h 11.1 km/h 59 % 0 mm
16:49 -14.9 °C -18.9 °C 34130.9 hPa ENE 3.7 km/h 6.9 km/h 60 % 0 mm
16:54 -15.1 °C -18.9 °C 34130.9 hPa NNE 2.6 km/h 6.4 km/h 61 % 0 mm
16:59 -15.2 °C -19.1 °C 34130.9 hPa NW 3.4 km/h 6.9 km/h 61 % 0 mm
17:04 -15.3 °C -19.1 °C 34130.9 hPa NW 5 km/h 8 km/h 62 % 0 mm
17:09 -15.5 °C -19.1 °C 34130.9 hPa NW 5.6 km/h 11.1 km/h 63 % 0 mm
17:14 -15.7 °C -19.2 °C 34164.7 hPa NNW 5.6 km/h 11.1 km/h 63 % 0 mm
17:19 -15.8 °C -19.2 °C 34164.7 hPa NNW 4.7 km/h 10.3 km/h 64 % 0 mm
17:24 -15.9 °C -19.2 °C 34164.7 hPa WNW 3.7 km/h 9.3 km/h 65 % 0 mm
17:29 -16.1 °C -19.3 °C 34164.7 hPa West 2.6 km/h 6.9 km/h 66 % 0 mm
17:34 -16.1 °C -19.3 °C 34164.7 hPa NW 2.3 km/h 6.4 km/h 66 % 0 mm
17:39 -16.2 °C -19.3 °C 34164.7 hPa WSW 4.3 km/h 9.3 km/h 67 % 0 mm
17:44 -16.3 °C -19.3 °C 34130.9 hPa WSW 5.6 km/h 9.3 km/h 68 % 0 mm
17:49 -16.5 °C -19.4 °C 34130.9 hPa WNW 4.2 km/h 8 km/h 68 % 0 mm
17:54 -16.6 °C -19.6 °C 34130.9 hPa NW 3.9 km/h 6.9 km/h 68 % 0 mm
17:59 -16.7 °C -19.6 °C 34164.7 hPa NW 3.1 km/h 6.9 km/h 69 % 0 mm
18:04 -16.8 °C -19.6 °C 34164.7 hPa NNW 1.8 km/h 8 km/h 70 % 0 mm
18:09 -16.9 °C -19.6 °C 34164.7 hPa West 1.6 km/h 8 km/h 70 % 0 mm
18:14 -17 °C -19.7 °C 34198.6 hPa SW 1 km/h 6.9 km/h 70 % 0 mm
18:19 -17.1 °C -19.7 °C 34198.6 hPa South 0.8 km/h 6.9 km/h 71 % 0 mm
18:24 -17.1 °C -19.7 °C 34198.6 hPa WSW 1 km/h 6.9 km/h 71 % 0 mm
18:29 -17.2 °C -19.7 °C 34235.8 hPa WSW 2.3 km/h 6.9 km/h 72 % 0 mm
18:34 -17.3 °C -19.8 °C 34235.8 hPa WSW 1.6 km/h 6.9 km/h 72 % 0 mm
18:39 -17.4 °C -19.8 °C 34235.8 hPa Calm     73 % 0 mm
18:44 -17.4 °C -19.8 °C 34235.8 hPa Calm     73 % 0 mm
18:49 -17.5 °C -19.9 °C 34235.8 hPa Calm   8 km/h 73 % 0 mm
18:54 -17.6 °C -19.8 °C 34235.8 hPa WNW 1.8 km/h 8 km/h 74 % 0 mm
18:59 -17.6 °C -19.8 °C 34269.7 hPa West 2.9 km/h 6.4 km/h 74 % 0 mm
19:04 -17.6 °C -19.9 °C 34269.7 hPa NW 1.8 km/h 6.4 km/h 74 % 0 mm
19:09 -17.7 °C -19.8 °C 34269.7 hPa NNW 1.8 km/h 6.4 km/h 75 % 0 mm
19:14 -17.7 °C -19.9 °C 34198.6 hPa NW 1 km/h 6.4 km/h 75 % 0 mm
19:19 -17.8 °C -19.9 °C 34198.6 hPa NW 1.8 km/h 7.6 km/h 75 % 0 mm
19:24 -17.8 °C -19.9 °C 34198.6 hPa NW 1.8 km/h 7.6 km/h 75 % 0 mm
19:29 -17.9 °C -19.9 °C 34235.8 hPa WNW 1.3 km/h 5.1 km/h 76 % 0 mm
19:34 -17.9 °C -20 °C 34235.8 hPa WNW 1 km/h 5.1 km/h 76 % 0 mm
19:39 -17.9 °C -20 °C 34235.8 hPa Calm     76 % 0 mm
19:44 -17.9 °C -20 °C 34269.7 hPa Calm     76 % 0 mm
19:49 -17.9 °C -19.9 °C 34269.7 hPa North 0.3 km/h 2.9 km/h 77 % 0 mm
19:54 -17.9 °C -19.9 °C 34269.7 hPa West 0.5 km/h 3.4 km/h 77 % 0 mm
19:59 -17.9 °C -19.9 °C 34269.7 hPa WSW 0.8 km/h 4.2 km/h 77 % 0 mm
20:04 -17.9 °C -19.8 °C 34269.7 hPa SW 0.5 km/h 4.2 km/h 78 % 0 mm
20:09 -17.9 °C -19.8 °C 34269.7 hPa NW 1 km/h 6.9 km/h 78 % 0 mm
20:14 -17.9 °C -19.8 °C 34303.6 hPa NW 1 km/h 6.9 km/h 78 % 0 mm
20:19 -17.8 °C -19.6 °C 34303.6 hPa Calm   2.3 km/h 79 % 0 mm
20:24 -17.8 °C -19.6 °C 34303.6 hPa Calm     79 % 0 mm
20:29 -17.8 °C -19.6 °C 34303.6 hPa Calm     79 % 0 mm
20:34 -17.7 °C -19.5 °C 34303.6 hPa Calm     79 % 0 mm
20:39 -17.7 °C -19.4 °C 34303.6 hPa Calm     80 % 0 mm
20:44 -17.7 °C -19.4 °C 34303.6 hPa West 1.3 km/h 9.3 km/h 80 % 0 mm
20:49 -17.7 °C -19.4 °C 34303.6 hPa WNW 2.3 km/h 9.3 km/h 80 % 0 mm
20:54 -17.7 °C -19.3 °C 34303.6 hPa North 1.3 km/h 6.4 km/h 81 % 0 mm
20:59 -17.6 °C -19.2 °C 34303.6 hPa ENE 1.3 km/h 7.6 km/h 81 % 0 mm
21:04 -17.4 °C -18.9 °C 34303.6 hPa ENE 5 km/h 15 km/h 82 % 0 mm
21:09 -17.4 °C -18.9 °C 34303.6 hPa East 6.9 km/h 15 km/h 82 % 0 mm
21:19 -17.2 °C -18.7 °C 34303.6 hPa ESE 3.4 km/h 11.1 km/h 82 % 0 mm
21:24 -17.2 °C -18.6 °C 34303.6 hPa SE 6 km/h 11.1 km/h 83 % 0 mm
21:34 -17.1 °C -18.6 °C 34303.6 hPa SE 8 km/h 12.7 km/h 83 % 0 mm
21:39 -17.2 °C -18.6 °C 34303.6 hPa SE 6.9 km/h 11.1 km/h 83 % 0 mm
21:44 -17.2 °C -18.6 °C 34337.4 hPa SE 5 km/h 9.8 km/h 83 % 0 mm
21:49 -17.3 °C -18.6 °C 34337.4 hPa SE 2.3 km/h 6.4 km/h 84 % 0 mm
22:04 -17.6 °C -19 °C 34337.4 hPa NW 2.3 km/h 9.3 km/h 83 % 0 mm
22:09 -17.7 °C -19.1 °C 34337.4 hPa NW 1 km/h 4.2 km/h 83 % 0 mm
22:14 -17.8 °C -19.3 °C 34371.3 hPa Calm   4.2 km/h 83 % 0 mm
22:19 -17.9 °C -19.3 °C 34371.3 hPa NNW 1.3 km/h 6.4 km/h 83 % 0 mm
22:24 -18 °C -19.4 °C 34371.3 hPa NW 1.8 km/h 9.3 km/h 83 % 0 mm
22:34 -18.1 °C -19.5 °C 34405.1 hPa WNW 6 km/h 10.3 km/h 83 % 0 mm
22:39 -18.2 °C -19.6 °C 34405.1 hPa WNW 3.7 km/h 10.3 km/h 83 % 0 mm
22:44 -18.2 °C -19.6 °C 34337.4 hPa SSW 0.3 km/h 6.4 km/h 83 % 0 mm
22:54 -18.2 °C -19.6 °C 34337.4 hPa SW 1.3 km/h 6.4 km/h 83 % 0 mm
22:59 -18.2 °C -19.6 °C 34371.3 hPa SW 0.8 km/h 5.1 km/h 83 % 0 mm
23:09 -18.2 °C -19.5 °C 34371.3 hPa NNW 1.6 km/h 6.4 km/h 84 % 0 mm
23:14 -18.2 °C -19.5 °C 34371.3 hPa NNW 0.3 km/h 3.4 km/h 84 % 0 mm
23:19 -18.1 °C -19.4 °C 34371.3 hPa Calm     84 % 0 mm
23:24 -18.1 °C -19.4 °C 34371.3 hPa Calm     84 % 0 mm
23:34 -18.1 °C -19.3 °C 34405.1 hPa Calm     85 % 0 mm
23:39 -18.1 °C -19.3 °C 34405.1 hPa Calm     85 % 0 mm
23:44 -18 °C -19.2 °C 34405.1 hPa Calm     85 % 0 mm
23:49 -18 °C -19.2 °C 34405.1 hPa Calm     85 % 0 mm
23:54 -17.9 °C -19.2 °C 34405.1 hPa Calm     85 % 0 mm
23:59 -17.9 °C -19.1 °C 34405.1 hPa Calm     86 % 0 mm
Vremenska postaja Senovo
Podatki zbrani iz Weather Underground - 2.75 mb

Script developed by  Jim McMurry - jmcmurry@mwt.net Adapted for the template by  Wim van der Kuil - Leuven-Template.eu

Vremenski podatki so objavljeni na:

European Weather Network

WeatherCloud

Weather Underground

AWEKAS

HAMweather, WeatherForYou, PWS Weather

MapView

Geostik

Slovenia weather network

Oprema, ki se uporablja:

Vremenski program
Cumulus

Vremenski server
Asus

Cumulus

Asus